Wetterdaten: Woche 07.02.11 - 13.02.11 (KW6)
Datum Zeit Temperatur Luftfeuchte Luftdruck Niederschlag Windrichtung Sonnenschein Solar Wind
07.02.2011 00:00 -0,8 C 92 % 1026,8 hPa 0,0 l/m N 0,00 h 0 W/m 0,4 km/h (0 Bft)
07.02.2011 01:00 -1,3 C 91 % 1027,0 hPa 0,0 l/m N 0,00 h 0 W/m 0,3 km/h (0 Bft)
07.02.2011 02:00 -1,8 C 91 % 1027,2 hPa 0,0 l/m N 0,00 h 0 W/m 0,1 km/h (0 Bft)
07.02.2011 03:00 -2,3 C 91 % 1026,8 hPa 0,0 l/m N 0,00 h 0 W/m 0,0 km/h (0 Bft)
07.02.2011 04:00 -2,8 C 92 % 1026,4 hPa 0,0 l/m N 0,00 h 0 W/m 0,5 km/h (0 Bft)
07.02.2011 05:00 -3,1 C 93 % 1026,5 hPa 0,0 l/m SW 0,00 h 0 W/m 2,7 km/h (1 Bft)
07.02.2011 06:00 -3,0 C 94 % 1026,2 hPa 0,0 l/m SW 0,00 h 0 W/m 3,5 km/h (1 Bft)
07.02.2011 07:00 -2,7 C 95 % 1025,8 hPa 0,0 l/m SW 0,00 h 7 W/m 4,0 km/h (1 Bft)
07.02.2011 08:00 -1,6 C 96 % 1025,6 hPa 0,0 l/m SW 0,00 h 24 W/m 2,9 km/h (1 Bft)
07.02.2011 09:00 -0,4 C 95 % 1025,7 hPa 0,0 l/m N 0,00 h 40 W/m 0,0 km/h (0 Bft)
07.02.2011 10:00 3,0 C 82 % 1025,4 hPa 0,2 l/m SW 0,08 h 87 W/m 5,6 km/h (1 Bft)
07.02.2011 11:00 6,2 C 70 % 1025,2 hPa 0,0 l/m S-SW 1,00 h 458 W/m 7,2 km/h (2 Bft)
07.02.2011 12:00 9,0 C 60 % 1024,3 hPa 0,0 l/m SW 1,00 h 418 W/m 11,0 km/h (2 Bft)
07.02.2011 13:00 10,3 C 57 % 1023,5 hPa 0,0 l/m S-SW 1,00 h 460 W/m 12,2 km/h (2 Bft)
07.02.2011 14:00 11,2 C 56 % 1022,9 hPa 0,0 l/m SW 0,92 h 350 W/m 11,3 km/h (2 Bft)
07.02.2011 15:00 11,2 C 54 % 1022,5 hPa 0,0 l/m SW 0,42 h 147 W/m 11,7 km/h (2 Bft)
07.02.2011 16:00 10,3 C 58 % 1022,1 hPa 0,0 l/m S-SO 0,00 h 47 W/m 9,7 km/h (2 Bft)
07.02.2011 17:00 7,0 C 68 % 1022,0 hPa 0,0 l/m S-SW 0,00 h 8 W/m 4,4 km/h (1 Bft)
07.02.2011 18:00 4,0 C 78 % 1022,0 hPa 0,0 l/m S-SO 0,00 h 0 W/m 1,7 km/h (1 Bft)
07.02.2011 19:00 1,8 C 85 % 1021,9 hPa 0,0 l/m N 0,00 h 0 W/m 0,1 km/h (0 Bft)
07.02.2011 20:00 0,9 C 87 % 1021,8 hPa 0,0 l/m N 0,00 h 0 W/m 1,1 km/h (0 Bft)
07.02.2011 21:00 0,4 C 89 % 1021,7 hPa 0,0 l/m N 0,00 h 0 W/m 1,2 km/h (1 Bft)
07.02.2011 22:00 0,5 C 88 % 1021,5 hPa 0,0 l/m O-NO 0,00 h 0 W/m 2,8 km/h (1 Bft)
07.02.2011 23:00 1,0 C 85 % 1021,5 hPa 0,0 l/m O-NO 0,00 h 0 W/m 2,8 km/h (1 Bft)
08.02.2011 00:00 0,5 C 86 % 1021,5 hPa 0,0 l/m O-NO 0,00 h 0 W/m 3,2 km/h (1 Bft)
08.02.2011 01:00 0,9 C 84 % 1021,7 hPa 0,0 l/m O-NO 0,00 h 0 W/m 3,3 km/h (1 Bft)
08.02.2011 02:00 -0,3 C 85 % 1021,9 hPa 0,0 l/m N-NO 0,00 h 0 W/m 1,1 km/h (0 Bft)
08.02.2011 03:00 -1,3 C 87 % 1021,8 hPa 0,0 l/m N 0,00 h 0 W/m 0,7 km/h (0 Bft)
08.02.2011 04:00 -1,9 C 89 % 1021,7 hPa 0,0 l/m N 0,00 h 0 W/m 1,2 km/h (1 Bft)
08.02.2011 05:00 -2,2 C 91 % 1021,9 hPa 0,0 l/m N 0,00 h 0 W/m 1,9 km/h (1 Bft)
08.02.2011 06:00 -2,5 C 91 % 1022,0 hPa 0,0 l/m N 0,00 h 0 W/m 1,2 km/h (1 Bft)
08.02.2011 07:00 -2,7 C 92 % 1022,3 hPa 0,0 l/m N-NO 0,00 h 8 W/m 1,2 km/h (1 Bft)
08.02.2011 08:00 -2,3 C 93 % 1023,5 hPa 0,0 l/m N 0,00 h 34 W/m 3,5 km/h (1 Bft)
08.02.2011 09:00 0,4 C 89 % 1024,1 hPa 0,0 l/m N 0,00 h 57 W/m 2,5 km/h (1 Bft)
08.02.2011 10:00 3,5 C 79 % 1024,0 hPa 0,0 l/m N 0,08 h 90 W/m 5,1 km/h (1 Bft)
08.02.2011 11:00 6,7 C 66 % 1024,2 hPa 0,0 l/m S-SW 1,00 h 413 W/m 7,8 km/h (2 Bft)
08.02.2011 12:00 8,6 C 56 % 1024,1 hPa 0,0 l/m O-SO 1,00 h 368 W/m 6,3 km/h (2 Bft)
08.02.2011 13:00 10,0 C 52 % 1023,4 hPa 0,0 l/m S-SO 1,00 h 433 W/m 6,9 km/h (2 Bft)
08.02.2011 14:00 10,7 C 54 % 1023,0 hPa 0,0 l/m NO 0,92 h 339 W/m 6,3 km/h (2 Bft)
08.02.2011 15:00 10,2 C 63 % 1022,8 hPa 0,0 l/m NO 0,50 h 190 W/m 10,2 km/h (2 Bft)
08.02.2011 16:00 9,0 C 72 % 1022,9 hPa 0,0 l/m O-NO 0,25 h 77 W/m 8,6 km/h (2 Bft)
08.02.2011 17:00 6,9 C 81 % 1022,9 hPa 0,0 l/m NO 0,00 h 12 W/m 3,9 km/h (1 Bft)
08.02.2011 18:00 4,7 C 89 % 1023,5 hPa 0,0 l/m NO 0,00 h 0 W/m 2,7 km/h (1 Bft)
08.02.2011 19:00 4,8 C 91 % 1023,8 hPa 0,0 l/m N 0,00 h 0 W/m 1,3 km/h (1 Bft)
08.02.2011 20:00 4,8 C 91 % 1023,7 hPa 0,0 l/m N 0,00 h 0 W/m 1,5 km/h (1 Bft)
08.02.2011 21:00 3,3 C 93 % 1023,6 hPa 0,0 l/m N 0,00 h 0 W/m 0,4 km/h (0 Bft)
08.02.2011 22:00 2,1 C 95 % 1023,5 hPa 0,0 l/m N-NO 0,00 h 0 W/m 3,1 km/h (1 Bft)
08.02.2011 23:00 1,4 C 96 % 1023,4 hPa 0,0 l/m N-NO 0,00 h 0 W/m 3,7 km/h (1 Bft)
09.02.2011 00:00 1,3 C 97 % 1023,2 hPa 0,0 l/m N 0,00 h 0 W/m 4,9 km/h (1 Bft)
09.02.2011 01:00 1,1 C 97 % 1022,9 hPa 0,0 l/m N 0,00 h 0 W/m 5,2 km/h (1 Bft)
09.02.2011 02:00 0,7 C 97 % 1022,6 hPa 0,0 l/m N 0,00 h 0 W/m 4,4 km/h (1 Bft)
09.02.2011 03:00 0,1 C 97 % 1022,4 hPa 0,0 l/m N 0,00 h 0 W/m 2,7 km/h (1 Bft)
09.02.2011 04:00 -0,1 C 97 % 1022,4 hPa 0,0 l/m N 0,00 h 0 W/m 3,6 km/h (1 Bft)
09.02.2011 05:00 0,0 C 97 % 1022,4 hPa 0,0 l/m N-NO 0,00 h 0 W/m 3,3 km/h (1 Bft)
09.02.2011 06:00 0,3 C 98 % 1022,2 hPa 0,0 l/m N-NO 0,00 h 0 W/m 4,9 km/h (1 Bft)
09.02.2011 07:00 0,1 C 98 % 1022,5 hPa 0,0 l/m N-NO 0,00 h 6 W/m 4,1 km/h (1 Bft)
09.02.2011 08:00 0,0 C 98 % 1022,8 hPa 0,0 l/m N-NO 0,00 h 25 W/m 4,5 km/h (1 Bft)
09.02.2011 09:00 -0,1 C 98 % 1023,0 hPa 0,0 l/m N 0,00 h 73 W/m 6,0 km/h (2 Bft)
09.02.2011 10:00 0,1 C 98 % 1023,0 hPa 0,0 l/m N 0,00 h 116 W/m 5,7 km/h (1 Bft)
09.02.2011 11:00 0,8 C 99 % 1023,1 hPa 0,0 l/m NO 0,00 h 161 W/m 6,4 km/h (2 Bft)
09.02.2011 12:00 1,5 C 98 % 1022,9 hPa 0,0 l/m N 0,00 h 186 W/m 6,7 km/h (2 Bft)
09.02.2011 13:00 2,4 C 95 % 1022,8 hPa 0,0 l/m NO 0,00 h 190 W/m 7,6 km/h (2 Bft)
09.02.2011 14:00 3,4 C 93 % 1022,4 hPa 0,0 l/m N-NO 0,50 h 229 W/m 7,3 km/h (2 Bft)
09.02.2011 15:00 3,3 C 92 % 1022,4 hPa 0,0 l/m NO 0,42 h 160 W/m 9,4 km/h (2 Bft)
09.02.2011 16:00 2,5 C 95 % 1022,8 hPa 0,0 l/m NO 0,08 h 58 W/m 9,3 km/h (2 Bft)
09.02.2011 17:00 1,9 C 97 % 1022,9 hPa 0,0 l/m N-NO 0,00 h 8 W/m 6,9 km/h (2 Bft)
09.02.2011 18:00 1,6 C 97 % 1023,1 hPa 0,0 l/m N-NO 0,00 h 0 W/m 7,0 km/h (2 Bft)
09.02.2011 19:00 1,4 C 98 % 1023,1 hPa 0,0 l/m NO 0,00 h 0 W/m 5,3 km/h (1 Bft)
09.02.2011 20:00 1,3 C 98 % 1023,0 hPa 0,0 l/m NO 0,00 h 0 W/m 4,4 km/h (1 Bft)
09.02.2011 21:00 1,3 C 98 % 1023,3 hPa 0,0 l/m NO 0,00 h 0 W/m 3,1 km/h (1 Bft)
09.02.2011 22:00 1,3 C 98 % 1023,2 hPa 0,0 l/m N 0,00 h 0 W/m 1,7 km/h (1 Bft)
09.02.2011 23:00 1,3 C 98 % 1023,3 hPa 0,0 l/m N 0,00 h 0 W/m 1,5 km/h (1 Bft)
10.02.2011 00:00 1,3 C 98 % 1023,4 hPa 0,0 l/m N 0,00 h 0 W/m 1,7 km/h (1 Bft)
10.02.2011 01:00 1,3 C 98 % 1023,2 hPa 0,0 l/m N 0,00 h 0 W/m 0,0 km/h (0 Bft)
10.02.2011 02:00 1,1 C 98 % 1023,2 hPa 0,0 l/m N 0,00 h 0 W/m 1,3 km/h (1 Bft)
10.02.2011 03:00 0,8 C 98 % 1022,9 hPa 0,0 l/m W-NW 0,00 h 0 W/m 3,5 km/h (1 Bft)
10.02.2011 04:00 0,3 C 98 % 1022,9 hPa 0,0 l/m SW 0,00 h 0 W/m 3,5 km/h (1 Bft)
10.02.2011 05:00 -0,2 C 98 % 1023,1 hPa 0,0 l/m SW 0,00 h 0 W/m 7,0 km/h (2 Bft)
10.02.2011 06:00 -0,6 C 98 % 1023,1 hPa 0,0 l/m SW 0,00 h 0 W/m 7,6 km/h (2 Bft)
10.02.2011 07:00 -0,8 C 98 % 1023,2 hPa 0,0 l/m SW 0,00 h 8 W/m 8,0 km/h (2 Bft)
10.02.2011 08:00 -0,9 C 98 % 1023,6 hPa 0,0 l/m W-SW 0,00 h 34 W/m 8,2 km/h (2 Bft)
10.02.2011 09:00 -0,6 C 98 % 1023,6 hPa 0,0 l/m SW 0,00 h 83 W/m 9,7 km/h (2 Bft)
10.02.2011 10:00 0,5 C 98 % 1023,5 hPa 0,0 l/m SW 0,08 h 157 W/m 9,3 km/h (2 Bft)
10.02.2011 11:00 1,2 C 97 % 1023,2 hPa 0,0 l/m S-SW 0,00 h 164 W/m 12,8 km/h (3 Bft)
10.02.2011 12:00 2,1 C 97 % 1022,6 hPa 0,0 l/m S-SW 0,17 h 234 W/m 10,8 km/h (2 Bft)
10.02.2011 13:00 4,0 C 92 % 1021,9 hPa 0,0 l/m S-SW 0,75 h 398 W/m 13,3 km/h (3 Bft)
10.02.2011 14:00 6,2 C 83 % 1021,1 hPa 0,0 l/m S-SW 0,75 h 280 W/m 13,4 km/h (3 Bft)
10.02.2011 15:00 7,1 C 78 % 1020,7 hPa 0,0 l/m S-SO 0,83 h 184 W/m 11,0 km/h (2 Bft)
10.02.2011 16:00 7,6 C 75 % 1020,5 hPa 0,0 l/m S-SW 0,42 h 76 W/m 7,9 km/h (2 Bft)
10.02.2011 17:00 6,6 C 79 % 1020,2 hPa 0,0 l/m S-SW 0,00 h 14 W/m 3,2 km/h (1 Bft)
10.02.2011 18:00 4,9 C 84 % 1020,0 hPa 0,0 l/m N 0,00 h 0 W/m 1,3 km/h (1 Bft)
10.02.2011 19:00 3,7 C 85 % 1020,1 hPa 0,0 l/m SO 0,00 h 0 W/m 3,5 km/h (1 Bft)
10.02.2011 20:00 3,4 C 83 % 1019,6 hPa 0,0 l/m S-SO 0,00 h 0 W/m 5,5 km/h (1 Bft)
10.02.2011 21:00 2,7 C 84 % 1019,9 hPa 0,0 l/m S-SW 0,00 h 0 W/m 3,5 km/h (1 Bft)
10.02.2011 22:00 2,1 C 87 % 1019,7 hPa 0,0 l/m S-SO 0,00 h 0 W/m 3,6 km/h (1 Bft)
10.02.2011 23:00 3,2 C 84 % 1019,4 hPa 0,0 l/m S-SO 0,00 h 0 W/m 5,1 km/h (1 Bft)
11.02.2011 00:00 4,0 C 80 % 1019,2 hPa 0,2 l/m SO 0,00 h 0 W/m 5,5 km/h (1 Bft)
11.02.2011 01:00 4,0 C 85 % 1019,0 hPa 0,2 l/m N 0,00 h 0 W/m 0,7 km/h (0 Bft)
11.02.2011 02:00 3,6 C 89 % 1018,7 hPa 0,2 l/m S-SO 0,00 h 0 W/m 5,6 km/h (1 Bft)
11.02.2011 03:00 3,7 C 88 % 1018,1 hPa 0,0 l/m SO 0,00 h 0 W/m 5,2 km/h (1 Bft)
11.02.2011 04:00 4,0 C 83 % 1017,5 hPa 0,0 l/m SW 0,00 h 0 W/m 7,9 km/h (2 Bft)
11.02.2011 05:00 4,7 C 74 % 1017,5 hPa 0,0 l/m SW 0,00 h 0 W/m 7,5 km/h (2 Bft)
11.02.2011 06:00 4,5 C 76 % 1017,5 hPa 0,0 l/m O-SO 0,00 h 0 W/m 5,3 km/h (1 Bft)
11.02.2011 07:00 4,0 C 79 % 1017,6 hPa 0,0 l/m S-SO 0,00 h 6 W/m 3,7 km/h (1 Bft)
11.02.2011 08:00 3,8 C 81 % 1017,7 hPa 0,0 l/m S 0,00 h 30 W/m 7,8 km/h (2 Bft)
11.02.2011 09:00 4,9 C 78 % 1017,9 hPa 0,0 l/m S-SW 0,00 h 86 W/m 7,6 km/h (2 Bft)
11.02.2011 10:00 5,8 C 75 % 1017,9 hPa 0,0 l/m SO 0,00 h 94 W/m 7,2 km/h (2 Bft)
11.02.2011 11:00 7,6 C 69 % 1017,5 hPa 0,0 l/m W-SW 0,08 h 196 W/m 15,7 km/h (3 Bft)
11.02.2011 12:00 9,4 C 61 % 1016,8 hPa 0,0 l/m SW 0,33 h 256 W/m 18,6 km/h (3 Bft)
11.02.2011 13:00 10,3 C 52 % 1016,4 hPa 0,0 l/m W-SW 0,08 h 212 W/m 24,1 km/h (4 Bft)
11.02.2011 14:00 10,8 C 51 % 1016,0 hPa 0,0 l/m W-SW 0,08 h 189 W/m 22,2 km/h (4 Bft)
11.02.2011 15:00 11,0 C 53 % 1015,7 hPa 0,0 l/m SW 0,00 h 115 W/m 16,5 km/h (3 Bft)
11.02.2011 16:00 10,9 C 51 % 1015,6 hPa 0,0 l/m W-SW 0,00 h 40 W/m 15,6 km/h (3 Bft)
11.02.2011 17:00 10,1 C 53 % 1015,8 hPa 0,0 l/m W-SW 0,17 h 15 W/m 9,0 km/h (2 Bft)
11.02.2011 18:00 9,8 C 56 % 1015,9 hPa 0,0 l/m W-SW 0,00 h 0 W/m 9,3 km/h (2 Bft)
11.02.2011 19:00 9,4 C 60 % 1016,1 hPa 0,0 l/m SW 0,00 h 0 W/m 9,4 km/h (2 Bft)
11.02.2011 20:00 9,3 C 62 % 1015,7 hPa 0,0 l/m W-SW 0,00 h 0 W/m 10,1 km/h (2 Bft)
11.02.2011 21:00 8,9 C 64 % 1015,7 hPa 0,0 l/m W-SW 0,00 h 0 W/m 10,6 km/h (2 Bft)
11.02.2011 22:00 8,9 C 66 % 1015,7 hPa 0,0 l/m W-SW 0,00 h 0 W/m 12,9 km/h (3 Bft)
11.02.2011 23:00 8,7 C 68 % 1015,8 hPa 0,0 l/m W-SW 0,00 h 0 W/m 6,4 km/h (2 Bft)
12.02.2011 00:00 7,5 C 72 % 1015,9 hPa 0,0 l/m S-SW 0,00 h 0 W/m 2,4 km/h (1 Bft)
12.02.2011 01:00 6,5 C 77 % 1015,6 hPa 0,0 l/m NO 0,00 h 0 W/m 4,4 km/h (1 Bft)
12.02.2011 02:00 6,1 C 77 % 1015,8 hPa 0,0 l/m N 0,00 h 0 W/m 2,0 km/h (1 Bft)
12.02.2011 03:00 5,4 C 80 % 1015,6 hPa 0,0 l/m N 0,00 h 0 W/m 1,1 km/h (0 Bft)
12.02.2011 04:00 5,2 C 82 % 1015,2 hPa 0,0 l/m S 0,00 h 0 W/m 5,3 km/h (1 Bft)
12.02.2011 05:00 5,1 C 81 % 1015,2 hPa 0,0 l/m S-SW 0,00 h 0 W/m 4,0 km/h (1 Bft)
12.02.2011 06:00 4,1 C 82 % 1015,1 hPa 0,0 l/m N 0,00 h 0 W/m 2,1 km/h (1 Bft)
12.02.2011 07:00 3,1 C 84 % 1015,1 hPa 0,0 l/m N 0,00 h 9 W/m 1,1 km/h (0 Bft)
12.02.2011 08:00 2,4 C 86 % 1015,6 hPa 0,2 l/m N 0,00 h 35 W/m 0,0 km/h (0 Bft)
12.02.2011 09:00 4,1 C 84 % 1015,7 hPa 0,0 l/m S-SW 0,00 h 73 W/m 4,2 km/h (1 Bft)
12.02.2011 10:00 7,1 C 72 % 1015,6 hPa 0,0 l/m S-SO 0,00 h 97 W/m 9,5 km/h (2 Bft)
12.02.2011 11:00 9,0 C 66 % 1015,2 hPa 0,0 l/m S-SW 0,92 h 422 W/m 10,9 km/h (2 Bft)
12.02.2011 12:00 10,6 C 59 % 1014,7 hPa 0,0 l/m SW 0,92 h 396 W/m 12,5 km/h (3 Bft)
12.02.2011 13:00 11,9 C 53 % 1014,1 hPa 0,0 l/m SW 0,92 h 389 W/m 14,1 km/h (3 Bft)
12.02.2011 14:00 11,4 C 54 % 1013,7 hPa 0,0 l/m S-SW 0,50 h 240 W/m 11,4 km/h (2 Bft)
12.02.2011 15:00 11,9 C 51 % 1013,3 hPa 0,0 l/m SW 0,75 h 187 W/m 10,5 km/h (2 Bft)
12.02.2011 16:00 11,2 C 55 % 1013,1 hPa 0,0 l/m SW 0,17 h 67 W/m 9,0 km/h (2 Bft)
12.02.2011 17:00 9,1 C 63 % 1013,0 hPa 0,2 l/m SW 0,00 h 14 W/m 2,8 km/h (1 Bft)
12.02.2011 18:00 6,5 C 83 % 1013,4 hPa 0,0 l/m N-NW 0,00 h 0 W/m 6,1 km/h (2 Bft)
12.02.2011 19:00 4,7 C 92 % 1013,7 hPa 0,0 l/m N-NW 0,00 h 0 W/m 4,4 km/h (1 Bft)
12.02.2011 20:00 3,9 C 94 % 1013,7 hPa 0,0 l/m N-NW 0,00 h 0 W/m 4,8 km/h (1 Bft)
12.02.2011 21:00 3,4 C 94 % 1014,1 hPa 0,0 l/m N-NW 0,00 h 0 W/m 4,4 km/h (1 Bft)
12.02.2011 22:00 3,0 C 95 % 1014,3 hPa 0,0 l/m N 0,00 h 0 W/m 2,4 km/h (1 Bft)
12.02.2011 23:00 2,7 C 95 % 1014,2 hPa 0,0 l/m N 0,00 h 0 W/m 3,2 km/h (1 Bft)
13.02.2011 00:00 2,4 C 96 % 1013,7 hPa 0,0 l/m N-NW 0,00 h 0 W/m 2,1 km/h (1 Bft)
13.02.2011 01:00 2,3 C 96 % 1013,6 hPa 0,0 l/m N 0,00 h 0 W/m 1,5 km/h (1 Bft)
13.02.2011 02:00 2,3 C 97 % 1013,3 hPa 0,0 l/m N-NW 0,00 h 0 W/m 1,7 km/h (1 Bft)
13.02.2011 03:00 2,3 C 97 % 1012,9 hPa 0,0 l/m N-NW 0,00 h 0 W/m 2,9 km/h (1 Bft)
13.02.2011 04:00 2,1 C 97 % 1012,7 hPa 0,0 l/m N-NW 0,00 h 0 W/m 2,5 km/h (1 Bft)
13.02.2011 05:00 1,8 C 97 % 1012,5 hPa 0,0 l/m N 0,00 h 0 W/m 0,7 km/h (0 Bft)
13.02.2011 06:00 1,7 C 97 % 1012,2 hPa 0,0 l/m N 0,00 h 0 W/m 0,4 km/h (0 Bft)
13.02.2011 07:00 1,7 C 97 % 1012,1 hPa 0,0 l/m N 0,00 h 5 W/m 0,0 km/h (0 Bft)
13.02.2011 08:00 2,0 C 98 % 1012,3 hPa 0,0 l/m N 0,00 h 27 W/m 0,5 km/h (0 Bft)
13.02.2011 09:00 2,7 C 98 % 1012,4 hPa 0,2 l/m N 0,00 h 30 W/m 1,2 km/h (1 Bft)
13.02.2011 10:00 3,4 C 98 % 1012,2 hPa 0,0 l/m N 0,00 h 40 W/m 2,0 km/h (1 Bft)
13.02.2011 11:00 4,2 C 93 % 1012,2 hPa 0,0 l/m N 0,00 h 60 W/m 0,9 km/h (0 Bft)
13.02.2011 12:00 5,1 C 91 % 1011,6 hPa 0,0 l/m N-NW 0,42 h 260 W/m 1,5 km/h (1 Bft)
13.02.2011 13:00 7,2 C 85 % 1010,8 hPa 0,0 l/m N-NW 0,58 h 296 W/m 3,9 km/h (1 Bft)
13.02.2011 14:00 8,3 C 78 % 1010,2 hPa 0,0 l/m NO 0,75 h 317 W/m 4,5 km/h (1 Bft)
13.02.2011 15:00 9,0 C 72 % 1009,9 hPa 0,0 l/m O-SO 0,75 h 203 W/m 5,3 km/h (1 Bft)
13.02.2011 16:00 8,6 C 73 % 1009,3 hPa 0,0 l/m O-SO 0,00 h 66 W/m 4,1 km/h (1 Bft)
13.02.2011 17:00 6,1 C 83 % 1009,1 hPa 0,0 l/m N 0,00 h 13 W/m 0,1 km/h (0 Bft)
13.02.2011 18:00 3,9 C 90 % 1009,2 hPa 0,0 l/m N 0,00 h 0 W/m 0,3 km/h (0 Bft)
13.02.2011 19:00 2,9 C 94 % 1009,1 hPa 0,0 l/m N 0,00 h 0 W/m 0,3 km/h (0 Bft)
13.02.2011 20:00 2,6 C 96 % 1008,8 hPa 0,0 l/m O-NO 0,00 h 0 W/m 3,3 km/h (1 Bft)
13.02.2011 21:00 2,5 C 97 % 1008,6 hPa 0,0 l/m O-NO 0,00 h 0 W/m 3,5 km/h (1 Bft)
13.02.2011 22:00 2,0 C 97 % 1008,6 hPa 0,0 l/m O-NO 0,00 h 0 W/m 3,7 km/h (1 Bft)
13.02.2011 23:00 0,8 C 97 % 1008,6 hPa 0,0 l/m N-NW 0,00 h 0 W/m 7,6 km/h (2 Bft)
Min-Datum _ 07.02.11 08.02.11 13.02.11 - - - - 07.02.11
_ Min-Zeit 05:05 13:15 21:10 - - - - 00:00
Minimum _ -3,2 C 50 % 1008,4 hPa - - - - 0,0 km/h (0 Bft)
Max-Datum _ 12.02.11 09.02.11 07.02.11 07.02.11 - 07.02.11 12.02.11 11.02.11
_ Max-Zeit 13:35 16:30 02:20 10:40 - 10:55 12:50 13:20
Maximum _ 12,4 C 100 % 1027,3 hPa 0,2 l/m - 0,08 h 496 W/m 29,0 km/h
W-SW (5 Bft)
Durchschnitt _ 3,8 C 84 % 1019,2 hPa #1,4 l/m SW #20:35 h 148 W/m 5,3 km/h (1 Bft)